Time;durP1;ratioP1;P1;durP2;ratioP2;P2;SDS_P1;SDS_P2;PMS_P1;PMS_P2;Temp;Humidity;BMP_temperature;BMP_pressure;BME280_temperature;BME280_humidity;BME280_pressure;Samples;Min_cycle;Max_cycle;Signal;HPM_P1;HPM_P2
2023/03/15 00:01:33;;;;;;;11.13;2.70;;;;;;;-145.01;100.00;64805.59;5067430;28;20021;-59
2023/03/15 00:03:58;;;;;;;8.70;2.47;;;;;;;-145.01;100.00;64805.59;5088651;28;20241;-60
2023/03/15 00:06:23;;;;;;;6.55;2.53;;;;;;;-145.01;100.00;64805.59;5075585;28;20028;-60
2023/03/15 00:08:50;;;;;;;11.30;2.88;;;;;;;-145.01;100.00;64805.59;5089399;28;20016;-60
2023/03/15 00:11:16;;;;;;;7.82;2.88;;;;;;;-145.01;100.00;64805.59;5082391;28;20560;-60
2023/03/15 00:13:42;;;;;;;8.02;2.90;;;;;;;-145.01;100.00;64805.59;5061132;28;20028;-60
2023/03/15 00:16:08;;;;;;;6.93;2.70;;;;;;;-145.01;100.00;64805.59;5068659;28;20111;-60
2023/03/15 00:18:33;;;;;;;9.18;3.03;;;;;;;-145.01;100.00;64805.59;5055976;28;20372;-60
2023/03/15 00:20:58;;;;;;;16.40;3.08;;;;;;;-145.01;100.00;64805.59;5056950;28;20518;-60
2023/03/15 00:23:24;;;;;;;9.75;2.47;;;;;;;-145.01;100.00;64805.59;5064476;28;20051;-60
2023/03/15 00:25:50;;;;;;;10.98;2.90;;;;;;;-145.01;100.00;64805.59;5070602;28;20190;-60
2023/03/15 00:28:15;;;;;;;14.55;2.95;;;;;;;-145.01;100.00;64805.59;5058236;28;20029;-60
2023/03/15 00:30:41;;;;;;;10.10;3.30;;;;;;;-145.01;100.00;64805.59;5067643;28;20040;-60
2023/03/15 00:33:06;;;;;;;7.13;2.78;;;;;;;-145.01;100.00;64805.59;5067421;28;20032;-60
2023/03/15 00:35:32;;;;;;;12.13;2.58;;;;;;;-145.01;100.00;64805.59;5065272;28;20561;-60
2023/03/15 00:37:58;;;;;;;8.05;2.67;;;;;;;-145.01;100.00;64805.59;5067300;28;20745;-60
2023/03/15 00:40:23;;;;;;;12.25;3.35;;;;;;;-145.01;100.00;64805.59;5058393;28;20031;-60
2023/03/15 00:42:49;;;;;;;12.15;2.97;;;;;;;-145.01;100.00;64805.59;5060955;28;20032;-60
2023/03/15 00:45:19;;;;;;;11.57;3.78;;;;;;;-145.01;100.00;64805.59;5060382;28;20017;-60
2023/03/15 00:47:44;;;;;;;8.27;2.77;;;;;;;-145.01;100.00;64805.59;5074507;28;20020;-60
2023/03/15 00:50:10;;;;;;;11.00;3.20;;;;;;;-145.01;100.00;64805.59;5075194;28;20036;-60
2023/03/15 00:52:36;;;;;;;11.05;3.28;;;;;;;-145.01;100.00;64805.59;5069966;28;20043;-60
2023/03/15 00:55:01;;;;;;;16.33;3.78;;;;;;;-145.01;100.00;64805.59;5053991;28;20040;-60
2023/03/15 00:57:27;;;;;;;13.13;3.78;;;;;;;-145.01;100.00;64805.59;5058684;28;20035;-60
2023/03/15 00:59:52;;;;;;;14.35;3.40;;;;;;;-145.01;100.00;64805.59;5063870;28;20029;-60
2023/03/15 01:02:20;;;;;;;9.80;3.90;;;;;;;-145.01;100.00;64805.59;5063496;28;20085;-60
2023/03/15 01:04:47;;;;;;;15.00;4.40;;;;;;;-145.01;100.00;64805.59;5052253;28;20033;-60
2023/03/15 01:07:12;;;;;;;12.48;4.57;;;;;;;-145.01;100.00;64805.59;5036545;28;20128;-60
2023/03/15 01:09:38;;;;;;;9.25;5.10;;;;;;;-145.01;100.00;64805.59;5061545;28;20017;-59
2023/03/15 01:12:03;;;;;;;18.92;4.00;;;;;;;-145.01;100.00;64805.59;5063193;28;20033;-60
2023/03/15 01:14:29;;;;;;;6.50;3.40;;;;;;;-145.01;100.00;64805.59;5080472;28;20059;-60
2023/03/15 01:16:54;;;;;;;15.48;4.95;;;;;;;-145.01;100.00;64805.59;5086170;28;20059;-60
2023/03/15 01:19:19;;;;;;;15.95;5.22;;;;;;;-145.01;100.00;64805.59;5091655;28;20611;-60
2023/03/15 01:21:46;;;;;;;9.63;3.58;;;;;;;-145.01;100.00;64805.59;5056564;28;20059;-59
2023/03/15 01:24:13;;;;;;;15.40;4.35;;;;;;;-145.01;100.00;64805.59;5084250;28;20340;-60
2023/03/15 01:26:38;;;;;;;13.60;4.93;;;;;;;-145.01;100.00;64805.59;5069105;28;20026;-60
2023/03/15 01:29:03;;;;;;;14.77;5.10;;;;;;;-145.01;100.00;64805.59;5095438;28;20020;-60
2023/03/15 01:31:29;;;;;;;17.30;5.10;;;;;;;-145.01;100.00;64805.59;5081688;28;20451;-60
2023/03/15 01:33:55;;;;;;;15.15;5.57;;;;;;;-145.01;100.00;64805.59;5089338;28;20539;-60
2023/03/15 01:36:21;;;;;;;11.65;4.97;;;;;;;-145.01;100.00;64805.59;5084032;28;20293;-60
2023/03/15 01:38:48;;;;;;;16.15;5.03;;;;;;;-145.01;100.00;64805.59;5070714;28;20032;-60
2023/03/15 01:41:13;;;;;;;13.20;4.85;;;;;;;-145.01;100.00;64805.59;5076602;28;20119;-60
2023/03/15 01:43:46;;;;;;;18.75;5.95;;;;;;;-145.01;100.00;64805.59;5087698;28;20227;-60
2023/03/15 01:46:23;;;;;;;14.93;6.00;;;;;;;-145.01;100.00;64805.59;5078491;28;20032;-60
2023/03/15 01:48:54;;;;;;;18.38;6.05;;;;;;;-145.01;100.00;64805.59;5080130;28;20032;-60
2023/03/15 01:51:24;;;;;;;14.65;6.68;;;;;;;-145.01;100.00;64805.59;5079248;28;20036;-60
2023/03/15 01:54:10;;;;;;;19.48;6.70;;;;;;;-145.01;100.00;64805.59;5077944;28;20103;-60
2023/03/15 01:56:37;;;;;;;17.75;6.60;;;;;;;-145.01;100.00;64805.59;5084293;28;20032;-60
2023/03/15 01:59:03;;;;;;;22.67;7.47;;;;;;;-145.01;100.00;64805.59;5077914;28;20486;-60
2023/03/15 02:01:30;;;;;;;18.73;8.00;;;;;;;-145.01;100.00;64805.59;5064349;28;20131;-60
2023/03/15 02:04:00;;;;;;;22.85;7.03;;;;;;;-145.01;100.00;64805.59;5062520;28;20040;-60
2023/03/15 02:06:25;;;;;;;19.27;7.70;;;;;;;-145.01;100.00;64805.59;5054463;28;20024;-60
2023/03/15 02:08:53;;;;;;;20.55;7.22;;;;;;;-145.01;100.00;64805.59;5073372;28;20031;-59
2023/03/15 02:11:20;;;;;;;11.07;6.13;;;;;;;-145.01;100.00;64805.59;5072441;28;20055;-60
2023/03/15 02:13:46;;;;;;;22.55;7.78;;;;;;;-145.01;100.00;64805.59;5082337;28;20395;-60
2023/03/15 02:16:11;;;;;;;20.90;7.68;;;;;;;-145.01;100.00;64805.59;5054986;28;20063;-60
2023/03/15 02:18:37;;;;;;;7.05;5.25;;;;;;;-145.01;100.00;64805.59;5080481;28;20028;-60
2023/03/15 02:21:31;;;;;;;18.73;6.60;;;;;;;-145.01;100.00;64805.59;5078706;28;20043;-59
2023/03/15 02:24:03;;;;;;;15.90;7.72;;;;;;;-145.01;100.00;64805.59;5075454;28;20051;-60
2023/03/15 02:26:44;;;;;;;16.70;6.53;;;;;;;-145.01;100.00;64805.59;5058811;28;20020;-60
2023/03/15 02:29:09;;;;;;;21.83;8.13;;;;;;;-145.01;100.00;64805.59;5043636;28;20028;-60
2023/03/15 02:31:36;;;;;;;16.60;8.15;;;;;;;-145.01;100.00;64805.59;5064853;28;20024;-60
2023/03/15 02:34:03;;;;;;;26.35;8.75;;;;;;;-145.01;100.00;64805.59;5080726;28;20044;-60
2023/03/15 02:36:30;;;;;;;15.23;7.90;;;;;;;-145.01;100.00;64805.59;5077154;28;20035;-60
2023/03/15 02:38:56;;;;;;;12.82;5.55;;;;;;;-145.01;100.00;64805.59;5052128;28;20074;-60
2023/03/15 02:41:25;;;;;;;14.68;7.40;;;;;;;-145.01;100.00;64805.59;5092417;28;20027;-60
2023/03/15 02:43:53;;;;;;;18.63;7.07;;;;;;;-145.01;100.00;64805.59;5055242;28;20332;-61
2023/03/15 02:46:18;;;;;;;15.38;6.72;;;;;;;-145.01;100.00;64805.59;5066253;28;20051;-60
2023/03/15 02:48:44;;;;;;;15.40;6.82;;;;;;;-145.01;100.00;64805.59;5061566;28;20021;-60
2023/03/15 02:51:20;;;;;;;20.15;6.90;;;;;;;-145.01;100.00;64805.59;5091271;28;20493;-60
2023/03/15 02:53:45;;;;;;;19.15;7.28;;;;;;;-145.01;100.00;64805.59;5077196;28;20024;-60
2023/03/15 02:56:13;;;;;;;12.95;6.22;;;;;;;-145.01;100.00;64805.59;5079415;28;20044;-60
2023/03/15 02:58:38;;;;;;;17.95;7.72;;;;;;;-145.01;100.00;64805.59;5081282;28;20024;-60
2023/03/15 03:01:04;;;;;;;15.00;7.03;;;;;;;-145.01;100.00;64805.59;5060795;28;20049;-60
2023/03/15 03:03:32;;;;;;;17.98;7.40;;;;;;;-145.01;100.00;64805.59;5058934;28;20138;-60
2023/03/15 03:05:57;;;;;;;15.90;7.05;;;;;;;-145.01;100.00;64805.59;5070351;28;20098;-60
2023/03/15 03:08:22;;;;;;;14.73;6.45;;;;;;;-145.01;100.00;64805.59;5080923;28;20027;-60
2023/03/15 03:10:48;;;;;;;20.67;6.63;;;;;;;-145.01;100.00;64805.59;5075994;28;20074;-60
2023/03/15 03:13:17;;;;;;;16.48;7.47;;;;;;;-145.01;100.00;64805.59;5081152;28;20036;-60
2023/03/15 03:15:44;;;;;;;13.82;6.90;;;;;;;-145.01;100.00;64805.59;5066238;28;20101;-60
2023/03/15 03:18:10;;;;;;;17.00;7.40;;;;;;;-145.01;100.00;64805.59;5052235;28;20040;-59
2023/03/15 03:20:36;;;;;;;13.77;6.90;;;;;;;-145.01;100.00;64805.59;5043994;28;20579;-59
2023/03/15 03:23:05;;;;;;;19.75;8.05;;;;;;;-145.01;100.00;64805.59;5041588;28;20036;-59
2023/03/15 03:25:31;;;;;;;19.83;7.50;;;;;;;-145.01;100.00;64805.59;5080985;28;20042;-59
2023/03/15 03:27:57;;;;;;;17.92;7.72;;;;;;;-145.01;100.00;64805.59;5078172;28;20032;-60
2023/03/15 03:30:23;;;;;;;18.45;7.60;;;;;;;-145.01;100.00;64805.59;5089507;28;20429;-60
2023/03/15 03:32:49;;;;;;;14.63;5.75;;;;;;;-145.01;100.00;64805.59;5082188;28;20352;-59
2023/03/15 03:35:15;;;;;;;25.58;9.40;;;;;;;-145.01;100.00;64805.59;5083748;28;20021;-60
2023/03/15 03:37:40;;;;;;;17.00;8.00;;;;;;;-145.01;100.00;64805.59;5084267;28;20115;-60
2023/03/15 03:40:07;;;;;;;15.73;7.35;;;;;;;-145.01;100.00;64805.59;5087205;28;20040;-60
2023/03/15 03:42:33;;;;;;;19.55;8.65;;;;;;;-145.01;100.00;64805.59;5081955;28;20024;-61
2023/03/15 03:44:59;;;;;;;14.75;6.88;;;;;;;-145.01;100.00;64805.59;5082375;28;20518;-61
2023/03/15 03:47:24;;;;;;;20.30;7.93;;;;;;;-145.01;100.00;64805.59;5091013;27;20550;-58
2023/03/15 03:49:50;;;;;;;22.90;8.70;;;;;;;-145.01;100.00;64805.59;5085866;28;20029;-59
2023/03/15 03:52:15;;;;;;;21.02;7.72;;;;;;;-145.01;100.00;64805.59;5082402;28;20036;-59
2023/03/15 03:54:41;;;;;;;19.75;9.18;;;;;;;-145.01;100.00;64805.59;5081741;28;20046;-59
2023/03/15 03:57:07;;;;;;;17.20;8.18;;;;;;;-145.01;100.00;64805.59;5086880;28;20020;-59
2023/03/15 03:59:32;;;;;;;15.18;5.65;;;;;;;-145.01;100.00;64805.59;5084118;28;20138;-59
2023/03/15 04:01:58;;;;;;;21.08;8.55;;;;;;;-145.01;100.00;64805.59;5075013;28;20039;-59
2023/03/15 04:04:25;;;;;;;22.25;7.65;;;;;;;-145.01;100.00;64805.59;5060774;28;20020;-59
2023/03/15 04:06:50;;;;;;;24.80;8.75;;;;;;;-145.01;100.00;64805.59;5083557;28;20038;-59
2023/03/15 04:09:16;;;;;;;19.50;9.23;;;;;;;-145.01;100.00;64805.59;5059683;28;20036;-59
2023/03/15 04:11:41;;;;;;;19.38;9.38;;;;;;;-145.01;100.00;64805.59;5083534;28;20028;-59
2023/03/15 04:14:11;;;;;;;19.40;7.90;;;;;;;-145.01;100.00;64805.59;5087309;28;20525;-59
2023/03/15 04:16:36;;;;;;;23.10;9.68;;;;;;;-145.01;100.00;64805.59;5087959;28;20032;-59
2023/03/15 04:19:02;;;;;;;21.00;8.18;;;;;;;-145.01;100.00;64805.59;5064528;28;20148;-59
2023/03/15 04:21:30;;;;;;;21.08;9.55;;;;;;;-145.01;100.00;64805.59;5083760;28;20036;-61
2023/03/15 04:23:57;;;;;;;19.23;8.10;;;;;;;-145.01;100.00;64805.59;5082691;28;20556;-60
2023/03/15 04:26:25;;;;;;;15.07;7.07;;;;;;;-145.01;100.00;64805.59;5066308;28;20107;-60
2023/03/15 04:28:54;;;;;;;20.27;8.52;;;;;;;-145.01;100.00;64805.59;5064687;28;20024;-61
2023/03/15 04:31:19;;;;;;;21.67;9.18;;;;;;;-145.01;100.00;64805.59;5063964;28;20092;-61
2023/03/15 04:33:45;;;;;;;18.77;8.30;;;;;;;-145.01;100.00;64805.59;5088175;28;20020;-60
2023/03/15 04:36:17;;;;;;;24.38;8.65;;;;;;;-145.01;100.00;64805.59;5076029;28;20035;-61
2023/03/15 04:38:45;;;;;;;19.38;9.23;;;;;;;-145.01;100.00;64805.59;5073438;28;20024;-60
2023/03/15 04:41:11;;;;;;;13.88;5.90;;;;;;;-145.01;100.00;64805.59;5090363;28;20028;-60
2023/03/15 04:43:37;;;;;;;22.73;8.98;;;;;;;-145.01;100.00;64805.59;5087748;28;20023;-60
2023/03/15 04:46:02;;;;;;;20.35;8.48;;;;;;;-145.01;100.00;64805.59;5071057;28;20122;-60
2023/03/15 04:48:28;;;;;;;21.55;9.35;;;;;;;-145.01;100.00;64805.59;5089497;28;20085;-60
2023/03/15 04:50:53;;;;;;;19.48;7.72;;;;;;;-145.01;100.00;64805.59;5086578;28;20389;-60
2023/03/15 04:53:18;;;;;;;20.77;9.82;;;;;;;-145.01;100.00;64805.59;5082387;28;20027;-60
2023/03/15 04:55:44;;;;;;;23.13;9.18;;;;;;;-145.01;100.00;64805.59;5063573;28;20040;-60
2023/03/15 04:58:09;;;;;;;20.90;10.05;;;;;;;-145.01;100.00;64805.59;5063726;28;20040;-60
2023/03/15 05:00:35;;;;;;;19.80;7.95;;;;;;;-145.01;100.00;64805.59;5083599;28;20428;-60
2023/03/15 05:03:00;;;;;;;23.05;9.35;;;;;;;-145.01;100.00;64805.59;5081386;28;20081;-60
2023/03/15 05:05:26;;;;;;;25.50;10.05;;;;;;;-145.01;100.00;64805.59;5062198;28;20110;-60
2023/03/15 05:07:52;;;;;;;20.75;8.93;;;;;;;-145.01;100.00;64805.59;5073618;28;20028;-60
2023/03/15 05:10:18;;;;;;;26.50;9.10;;;;;;;-145.01;100.00;64805.59;5078337;28;20032;-60
2023/03/15 05:12:44;;;;;;;29.52;8.85;;;;;;;-145.01;100.00;64805.59;5058973;28;20040;-60
2023/03/15 05:15:10;;;;;;;22.23;8.50;;;;;;;-145.01;100.00;64805.59;5078284;28;20040;-60
2023/03/15 05:17:35;;;;;;;21.92;9.75;;;;;;;-145.01;100.00;64805.59;5069915;28;20029;-60
2023/03/15 05:20:00;;;;;;;26.00;9.07;;;;;;;-145.01;100.00;64805.59;5086040;28;20032;-60
2023/03/15 05:22:26;;;;;;;27.92;8.90;;;;;;;-145.01;100.00;64805.59;5080308;28;20080;-60
2023/03/15 05:24:55;;;;;;;21.67;8.75;;;;;;;-145.01;100.00;64805.59;5086235;28;20374;-60
2023/03/15 05:27:20;;;;;;;18.38;8.80;;;;;;;-145.01;100.00;64805.59;5077382;28;20041;-60
2023/03/15 05:29:45;;;;;;;19.05;8.50;;;;;;;-145.01;100.00;64805.59;5059259;28;20024;-60
2023/03/15 05:32:11;;;;;;;20.67;9.10;;;;;;;-145.01;100.00;64805.59;5073218;28;20036;-59
2023/03/15 05:34:37;;;;;;;18.63;9.63;;;;;;;-145.01;100.00;64805.59;5068226;28;20442;-60
2023/03/15 05:37:02;;;;;;;25.55;9.43;;;;;;;-145.01;100.00;64805.59;5089543;28;20040;-60
2023/03/15 05:39:28;;;;;;;23.40;8.65;;;;;;;-145.01;100.00;64805.59;5076499;28;20028;-60
2023/03/15 05:41:54;;;;;;;20.67;8.85;;;;;;;-145.01;100.00;64805.59;5073615;28;20059;-60
2023/03/15 05:44:19;;;;;;;23.30;8.95;;;;;;;-145.01;100.00;64805.59;5084064;28;20031;-60
2023/03/15 05:46:44;;;;;;;22.23;8.73;;;;;;;-145.01;100.00;64805.59;5082596;28;20327;-60
2023/03/15 05:49:10;;;;;;;19.88;7.97;;;;;;;-145.01;100.00;64805.59;5073576;28;20024;-60
2023/03/15 05:51:36;;;;;;;13.43;6.25;;;;;;;-145.01;100.00;64805.59;5062295;28;20046;-60
2023/03/15 05:54:01;;;;;;;16.20;7.15;;;;;;;-145.01;100.00;64805.59;5091379;28;20085;-60
2023/03/15 05:56:26;;;;;;;19.90;10.15;;;;;;;-145.01;100.00;64805.59;5085729;28;20028;-60
2023/03/15 05:58:52;;;;;;;26.55;9.77;;;;;;;-145.01;100.00;64805.59;5080168;28;20040;-60
2023/03/15 06:01:17;;;;;;;23.13;9.10;;;;;;;-145.01;100.00;64805.59;5062091;28;20486;-60
2023/03/15 06:03:43;;;;;;;20.13;9.15;;;;;;;-145.01;100.00;64805.59;5077342;28;20390;-60
2023/03/15 06:06:08;;;;;;;23.60;8.38;;;;;;;-145.01;100.00;64805.59;5081577;28;20029;-60
2023/03/15 06:08:34;;;;;;;21.48;8.35;;;;;;;-145.01;100.00;64805.59;5076260;28;20032;-60
2023/03/15 06:10:59;;;;;;;20.80;8.20;;;;;;;-145.01;100.00;64805.59;5079094;28;20036;-60
2023/03/15 06:13:24;;;;;;;26.20;8.18;;;;;;;-145.01;100.00;64805.59;5082111;28;20051;-60
2023/03/15 06:15:50;;;;;;;19.38;8.05;;;;;;;-145.01;100.00;64805.59;5081372;28;20455;-60
2023/03/15 06:18:18;;;;;;;19.88;8.20;;;;;;;-145.01;100.00;64805.59;5055761;28;20063;-60
2023/03/15 06:20:43;;;;;;;22.38;8.50;;;;;;;-145.01;100.00;64805.59;5074641;28;20331;-60
2023/03/15 06:23:09;;;;;;;20.05;8.45;;;;;;;-145.01;100.00;64805.59;5085862;28;20025;-60
2023/03/15 06:25:34;;;;;;;18.77;8.05;;;;;;;-145.01;100.00;64805.59;5086478;28;20024;-60
2023/03/15 06:28:00;;;;;;;17.88;8.63;;;;;;;-145.01;100.00;64805.59;5093171;28;20024;-60
2023/03/15 06:30:25;;;;;;;20.88;8.18;;;;;;;-145.01;100.00;64805.59;5081808;28;20025;-60
2023/03/15 06:32:51;;;;;;;18.50;7.78;;;;;;;-145.01;100.00;64805.59;5086040;28;20032;-60
2023/03/15 06:35:17;;;;;;;20.63;8.65;;;;;;;-145.01;100.00;64805.59;5082095;28;20048;-60
2023/03/15 06:37:42;;;;;;;22.17;9.30;;;;;;;-145.01;100.00;64805.59;5081009;28;20046;-60
2023/03/15 06:40:10;;;;;;;16.75;5.97;;;;;;;-145.01;100.00;64805.59;5084885;28;20031;-60
2023/03/15 06:42:35;;;;;;;11.23;6.10;;;;;;;-145.01;100.00;64805.59;5080012;28;20574;-60
2023/03/15 06:45:02;;;;;;;13.93;6.30;;;;;;;-145.01;100.00;64805.59;5087366;28;20040;-60
2023/03/15 06:47:27;;;;;;;23.20;8.70;;;;;;;-145.01;100.00;64805.59;5078154;28;20036;-59
2023/03/15 06:49:53;;;;;;;21.48;8.15;;;;;;;-145.01;100.00;64805.59;5082661;28;20032;-59
2023/03/15 06:52:18;;;;;;;19.75;8.27;;;;;;;-145.01;100.00;64805.59;5060039;28;20032;-60
2023/03/15 06:54:44;;;;;;;15.90;6.07;;;;;;;-145.01;100.00;64805.59;5078644;28;20024;-60
2023/03/15 06:57:09;;;;;;;17.08;7.28;;;;;;;-145.01;100.00;64805.59;5077751;28;20033;-60
2023/03/15 06:59:35;;;;;;;15.30;7.63;;;;;;;-145.01;100.00;64805.59;5076741;28;20029;-60
2023/03/15 07:02:00;;;;;;;16.00;7.25;;;;;;;-145.01;100.00;64805.59;5060133;28;20028;-60
2023/03/15 07:04:26;;;;;;;14.20;5.80;;;;;;;-145.01;100.00;64805.59;5079283;28;20100;-60
2023/03/15 07:06:51;;;;;;;15.82;7.80;;;;;;;-145.01;100.00;64805.59;5067792;28;20033;-60
2023/03/15 07:09:16;;;;;;;17.02;7.68;;;;;;;-145.01;100.00;64805.59;5050885;28;20025;-60
2023/03/15 07:11:42;;;;;;;17.38;6.63;;;;;;;-145.01;100.00;64805.59;5051310;28;20135;-60
2023/03/15 07:14:08;;;;;;;29.27;9.88;;;;;;;-145.01;100.00;64805.59;5062377;28;20028;-60
2023/03/15 07:16:33;;;;;;;19.23;8.30;;;;;;;-145.01;100.00;64805.59;5081920;28;20040;-60
2023/03/15 07:18:58;;;;;;;18.40;7.65;;;;;;;-145.01;100.00;64805.59;5081675;28;20276;-60
2023/03/15 07:21:25;;;;;;;18.15;6.90;;;;;;;-145.01;100.00;64805.59;5056669;28;20040;-60
2023/03/15 07:23:50;;;;;;;20.98;7.47;;;;;;;-145.01;100.00;64805.59;5057849;28;20024;-59
2023/03/15 07:26:16;;;;;;;14.60;6.57;;;;;;;-145.01;100.00;64805.59;5068576;28;20097;-60
2023/03/15 07:28:43;;;;;;;15.50;6.40;;;;;;;-145.01;100.00;64805.59;5046090;28;20023;-60
2023/03/15 07:31:09;;;;;;;19.42;6.78;;;;;;;-145.01;100.00;64805.59;5078136;28;20028;-60
2023/03/15 07:33:35;;;;;;;17.48;6.60;;;;;;;-145.01;100.00;64805.59;5077718;28;20028;-60
2023/03/15 07:36:02;;;;;;;16.30;6.88;;;;;;;-145.01;100.00;64805.59;5083720;28;20037;-60
2023/03/15 07:38:28;;;;;;;16.27;6.75;;;;;;;-145.01;100.00;64805.59;5080099;28;20111;-60
2023/03/15 07:40:53;;;;;;;14.25;6.32;;;;;;;-145.01;100.00;64805.59;5074537;28;20413;-60
2023/03/15 07:43:19;;;;;;;18.42;6.60;;;;;;;-145.01;100.00;64805.59;5082234;28;20063;-60
2023/03/15 07:45:44;;;;;;;23.40;7.53;;;;;;;-145.01;100.00;64805.59;5079057;28;20036;-60
2023/03/15 07:48:10;;;;;;;9.43;4.85;;;;;;;-145.01;100.00;64805.59;5064091;28;20024;-60
2023/03/15 07:50:36;;;;;;;16.02;6.40;;;;;;;-145.01;100.00;64805.59;5075289;28;20028;-60
2023/03/15 07:53:02;;;;;;;16.42;6.40;;;;;;;-145.01;100.00;64805.59;5077799;28;20012;-60
2023/03/15 07:55:28;;;;;;;16.50;6.18;;;;;;;-145.01;100.00;64805.59;5073623;28;20028;-60
2023/03/15 07:57:53;;;;;;;10.20;5.40;;;;;;;-145.01;100.00;64805.59;5072023;28;20031;-60
2023/03/15 08:00:21;;;;;;;14.93;6.00;;;;;;;-145.01;100.00;64805.59;5081557;28;20016;-60
2023/03/15 08:02:47;;;;;;;12.27;5.43;;;;;;;-145.01;100.00;64805.59;5082549;28;20380;-60
2023/03/15 08:05:12;;;;;;;11.75;5.85;;;;;;;-145.01;100.00;64805.59;5062959;28;20032;-59
2023/03/15 08:07:37;;;;;;;12.75;5.88;;;;;;;-145.01;100.00;64805.59;5072012;28;20024;-59
2023/03/15 08:10:06;;;;;;;18.85;7.25;;;;;;;-145.01;100.00;64805.59;5073425;28;20040;-60
2023/03/15 08:12:33;;;;;;;16.25;6.18;;;;;;;-145.01;100.00;64805.59;5083439;28;20024;-59
2023/03/15 08:14:59;;;;;;;12.93;6.43;;;;;;;-145.01;100.00;64805.59;5075704;28;20033;-60
2023/03/15 08:17:24;;;;;;;14.30;6.85;;;;;;;-145.01;100.00;64805.59;5078599;28;20100;-59
2023/03/15 08:19:50;;;;;;;15.30;7.13;;;;;;;-145.01;100.00;64805.59;5077407;28;20021;-60
2023/03/15 08:22:15;;;;;;;13.00;5.80;;;;;;;-145.01;100.00;64805.59;5086637;28;20040;-59
2023/03/15 08:24:41;;;;;;;14.20;6.35;;;;;;;-145.01;100.00;64805.59;5076028;28;20122;-59
2023/03/15 08:27:06;;;;;;;16.83;5.95;;;;;;;-145.01;100.00;64805.59;5080964;28;20059;-59
2023/03/15 08:29:32;;;;;;;15.23;6.90;;;;;;;-145.01;100.00;64805.59;5077985;28;20089;-59
2023/03/15 08:31:57;;;;;;;15.07;6.93;;;;;;;-145.01;100.00;64805.59;5074734;28;20090;-59
2023/03/15 08:34:23;;;;;;;13.80;5.85;;;;;;;-145.01;100.00;64805.59;5086095;28;20441;-59
2023/03/15 08:36:48;;;;;;;13.48;6.05;;;;;;;-145.01;100.00;64805.59;5065662;28;20861;-59
2023/03/15 08:39:14;;;;;;;16.65;6.28;;;;;;;-145.01;100.00;64805.59;5077132;28;20040;-59
2023/03/15 08:41:40;;;;;;;11.13;6.05;;;;;;;-145.01;100.00;64805.59;5084218;28;20034;-59
2023/03/15 08:44:05;;;;;;;12.30;5.63;;;;;;;-145.01;100.00;64805.59;5077509;28;20026;-60
2023/03/15 08:46:32;;;;;;;12.98;5.20;;;;;;;-145.01;100.00;64805.59;5081267;28;20263;-59
2023/03/15 08:48:57;;;;;;;12.43;5.38;;;;;;;-145.01;100.00;64805.59;5080791;28;20114;-59
2023/03/15 08:51:24;;;;;;;10.23;5.28;;;;;;;-145.01;100.00;64805.59;5072828;28;20045;-59
2023/03/15 08:53:50;;;;;;;9.82;5.32;;;;;;;-145.01;100.00;64805.59;5075598;28;20064;-59
2023/03/15 08:56:17;;;;;;;10.48;5.55;;;;;;;-145.01;100.00;64805.59;5080832;28;20055;-59
2023/03/15 08:58:42;;;;;;;11.00;6.00;;;;;;;-145.01;100.00;64805.59;5080427;28;20498;-59
2023/03/15 09:01:13;;;;;;;12.50;5.40;;;;;;;-145.01;100.00;64805.59;5084648;28;20077;-59
2023/03/15 09:03:38;;;;;;;12.57;5.40;;;;;;;-145.01;100.00;64805.59;5082478;28;20138;-59
2023/03/15 09:06:04;;;;;;;10.82;5.35;;;;;;;-145.01;100.00;64805.59;5080988;28;20072;-60
2023/03/15 09:08:32;;;;;;;9.15;5.85;;;;;;;-145.01;100.00;64805.59;5074492;28;20034;-60
2023/03/15 09:10:58;;;;;;;13.48;7.35;;;;;;;-145.01;100.00;64805.59;5083517;28;20040;-60
2023/03/15 09:13:24;;;;;;;13.85;7.00;;;;;;;-145.01;100.00;64805.59;5079221;28;20044;-59
2023/03/15 09:15:50;;;;;;;13.43;7.57;;;;;;;-145.01;100.00;64805.59;5068605;28;20033;-60
2023/03/15 09:18:16;;;;;;;11.95;5.80;;;;;;;-145.01;100.00;64805.59;5076043;28;21392;-60
2023/03/15 09:20:42;;;;;;;12.40;6.35;;;;;;;-145.01;100.00;64805.59;5076440;28;20051;-60
2023/03/15 09:23:08;;;;;;;9.55;5.15;;;;;;;-145.01;100.00;64805.59;5077007;28;20028;-60
2023/03/15 09:25:35;;;;;;;9.63;6.50;;;;;;;-145.01;100.00;64805.59;5080114;28;20021;-60
2023/03/15 09:28:01;;;;;;;14.35;8.48;;;;;;;-145.01;100.00;64805.59;5079865;28;20119;-59
2023/03/15 09:30:27;;;;;;;37.25;15.90;;;;;;;-145.01;100.00;64805.59;5078673;28;20019;-60
2023/03/15 09:32:53;;;;;;;20.83;9.93;;;;;;;-145.01;100.00;64805.59;5070310;28;20386;-62
2023/03/15 09:35:19;;;;;;;19.05;10.45;;;;;;;-145.01;100.00;64805.59;5064475;28;20123;-59
2023/03/15 09:37:45;;;;;;;22.08;11.25;;;;;;;-145.01;100.00;64805.59;5078322;28;20533;-60
2023/03/15 09:40:38;;;;;;;18.73;8.82;;;;;;;-145.01;100.00;64805.59;5082852;28;20107;-60
2023/03/15 09:43:07;;;;;;;23.02;11.68;;;;;;;-145.01;100.00;64805.59;5071333;28;20063;-61
2023/03/15 09:46:24;;;;;;;22.60;11.35;;;;;;;-145.01;100.00;64805.59;5087637;28;20031;-61
2023/03/15 09:48:56;;;;;;;18.60;9.73;;;;;;;-145.01;100.00;64805.59;5018529;28;20048;-60
2023/03/15 09:51:22;;;;;;;20.95;11.55;;;;;;;-145.01;100.00;64805.59;5058297;28;20575;-60
2023/03/15 09:53:54;;;;;;;24.25;12.85;;;;;;;-145.01;100.00;64805.59;5071622;28;20047;-61
2023/03/15 09:56:23;;;;;;;15.68;9.93;;;;;;;-145.01;100.00;64805.59;5055586;28;20035;-60
2023/03/15 09:58:48;;;;;;;26.63;14.57;;;;;;;-145.01;100.00;64805.59;5039059;28;20843;-60
2023/03/15 10:01:14;;;;;;;17.45;10.30;;;;;;;-145.01;100.00;64805.59;5034394;28;20077;-60
2023/03/15 10:03:47;;;;;;;19.45;10.13;;;;;;;-145.01;100.00;64805.59;5076024;28;20032;-59
2023/03/15 10:06:16;;;;;;;18.52;10.88;;;;;;;-145.01;100.00;64805.59;5063177;28;20040;-60
2023/03/15 10:08:42;;;;;;;16.08;10.43;;;;;;;-145.01;100.00;64805.59;5084166;28;20503;-60
2023/03/15 10:11:20;;;;;;;18.75;9.93;;;;;;;-145.01;100.00;64805.59;5074896;28;20032;-60
2023/03/15 10:13:57;;;;;;;21.10;11.80;;;;;;;-145.01;100.00;64805.59;5047795;28;20321;-60
2023/03/15 10:16:54;;;;;;;18.50;10.38;;;;;;;-145.01;100.00;64805.59;5063608;28;20335;-60
2023/03/15 10:19:27;;;;;;;14.45;9.13;;;;;;;-145.01;100.00;64805.59;5046473;28;20043;-60
2023/03/15 10:22:11;;;;;;;18.02;9.88;;;;;;;-145.01;100.00;64805.59;5082054;28;20379;-60
2023/03/15 10:24:42;;;;;;;17.83;9.93;;;;;;;-145.01;100.00;64805.59;5075707;28;20028;-61
2023/03/15 10:27:21;;;;;;;17.88;9.60;;;;;;;-145.01;100.00;64805.59;5066371;28;20351;-62
2023/03/15 10:29:47;;;;;;;15.50;9.35;;;;;;;-145.01;100.00;64805.59;5063627;28;20032;-60
2023/03/15 10:32:16;;;;;;;20.85;11.07;;;;;;;-145.01;100.00;64805.59;5085685;28;20490;-60
2023/03/15 10:34:49;;;;;;;15.45;9.68;;;;;;;-145.01;100.00;64805.59;5065532;28;20127;-60
2023/03/15 10:37:14;;;;;;;15.18;10.20;;;;;;;-145.01;100.00;64805.59;5042813;28;20032;-60
2023/03/15 10:39:45;;;;;;;13.45;8.77;;;;;;;-145.01;100.00;64805.59;5068786;28;20067;-59
2023/03/15 10:42:29;;;;;;;15.20;8.77;;;;;;;-145.01;100.00;64805.59;5076681;28;20031;-60
2023/03/15 10:44:55;;;;;;;14.43;8.65;;;;;;;-145.01;100.00;64805.59;5078730;28;22086;-59
2023/03/15 10:47:21;;;;;;;11.25;7.60;;;;;;;-145.01;100.00;64805.59;5053781;28;20035;-59
2023/03/15 10:49:46;;;;;;;12.38;7.88;;;;;;;-145.01;100.00;64805.59;5050834;28;20065;-59
2023/03/15 10:52:27;;;;;;;14.60;8.65;;;;;;;-145.01;100.00;64805.59;5075925;28;20028;-59
2023/03/15 10:54:53;;;;;;;13.27;9.07;;;;;;;-145.01;100.00;64805.59;5076861;28;20085;-59
2023/03/15 10:57:20;;;;;;;14.63;9.15;;;;;;;-145.01;100.00;64805.59;5059555;28;20449;-59
2023/03/15 11:00:16;;;;;;;17.50;9.13;;;;;;;-145.01;100.00;64805.59;5076134;28;20082;-59
2023/03/15 11:02:51;;;;;;;25.17;10.10;;;;;;;-145.01;100.00;64805.59;5068377;28;20556;-58